Time;durP1;ratioP1;P1;durP2;ratioP2;P2;SDS_P1;SDS_P2;PMS_P1;PMS_P2;Temp;Humidity;BMP_temperature;BMP_pressure;BME280_temperature;BME280_humidity;BME280_pressure;Samples;Min_cycle;Max_cycle;Signal;HPM_P1;HPM_P2
2023/07/27 00:02:18;;;;;;;1999.90;999.90;;;19.50;99.90;;;;;;5012690;28;20065;-71
2023/07/27 00:04:44;;;;;;;1999.90;999.90;;;19.50;99.90;;;;;;5013800;28;20037;-71
2023/07/27 00:07:09;;;;;;;1999.90;999.90;;;19.60;99.90;;;;;;5012174;28;20495;-71
2023/07/27 00:09:35;;;;;;;1999.90;999.90;;;19.60;99.90;;;;;;5013294;28;20026;-71
2023/07/27 00:12:00;;;;;;;1999.90;999.90;;;19.60;99.90;;;;;;5013470;28;20422;-71
2023/07/27 00:14:26;;;;;;;1999.90;999.90;;;19.70;99.90;;;;;;5013386;28;20033;-71
2023/07/27 00:16:52;;;;;;;1999.90;999.90;;;19.70;99.90;;;;;;5012115;28;20481;-71
2023/07/27 00:19:18;;;;;;;1999.90;999.90;;;19.70;99.90;;;;;;5012480;28;20068;-71
2023/07/27 00:21:43;;;;;;;1999.90;999.90;;;19.80;99.90;;;;;;5012751;28;20104;-71
2023/07/27 00:24:09;;;;;;;1999.90;999.90;;;19.80;99.90;;;;;;5011761;28;20473;-76
2023/07/27 00:26:34;;;;;;;1999.90;999.90;;;19.80;99.90;;;;;;5012009;28;20022;-77
2023/07/27 00:29:00;;;;;;;1999.90;999.90;;;19.70;99.90;;;;;;5012501;28;20112;-71
2023/07/27 00:31:26;;;;;;;1999.90;999.90;;;19.60;99.90;;;;;;5013057;28;20025;-71
2023/07/27 00:33:51;;;;;;;1999.90;999.90;;;19.60;99.90;;;;;;5017174;28;20036;-71
2023/07/27 00:36:17;;;;;;;1999.90;999.90;;;19.60;99.90;;;;;;5032724;28;20025;-77
2023/07/27 00:38:42;;;;;;;1999.90;999.90;;;19.60;99.90;;;;;;5024342;28;20034;-76
2023/07/27 00:41:08;;;;;;;1999.90;999.90;;;19.60;99.90;;;;;;5012937;28;20093;-71
2023/07/27 00:43:34;;;;;;;1999.90;999.90;;;19.60;99.90;;;;;;5027297;28;20049;-71
2023/07/27 00:45:59;;;;;;;1999.90;999.90;;;19.60;99.90;;;;;;5014733;28;20025;-71
2023/07/27 00:48:25;;;;;;;1999.90;999.90;;;19.70;99.90;;;;;;5032169;28;20033;-71
2023/07/27 00:50:52;;;;;;;1999.90;999.90;;;19.80;99.90;;;;;;5032969;28;20029;-77
2023/07/27 00:53:17;;;;;;;1999.90;999.90;;;19.80;99.90;;;;;;5032402;28;20116;-71
2023/07/27 00:55:44;;;;;;;1999.90;999.90;;;19.80;99.90;;;;;;5032565;28;20130;-71
2023/07/27 00:58:11;;;;;;;1999.90;999.90;;;19.80;99.90;;;;;;5014696;28;20033;-71
2023/07/27 01:00:38;;;;;;;1999.90;999.90;;;19.80;99.90;;;;;;5012638;28;20079;-71
2023/07/27 01:03:04;;;;;;;1999.90;999.90;;;19.80;99.90;;;;;;5032278;28;20025;-77
2023/07/27 01:05:30;;;;;;;1999.90;999.90;;;19.80;99.90;;;;;;5032787;28;20028;-76
2023/07/27 01:07:56;;;;;;;1999.90;999.90;;;19.90;99.90;;;;;;5014069;28;20033;-71
2023/07/27 01:10:30;;;;;;;1999.90;999.90;;;19.90;99.90;;;;;;5032335;28;20033;-71
2023/07/27 01:13:03;;;;;;;1999.90;999.90;;;19.90;99.90;;;;;;5032148;28;20025;-71
2023/07/27 01:15:32;;;;;;;1999.90;999.90;;;19.80;99.90;;;;;;5032558;28;20544;-77
2023/07/27 01:18:13;;;;;;;1999.90;999.90;;;19.70;99.90;;;;;;5032464;28;20075;-71
2023/07/27 01:20:49;;;;;;;1999.90;999.90;;;19.70;99.90;;;;;;5014620;28;20029;-71
2023/07/27 01:23:46;;;;;;;1999.90;999.90;;;19.60;99.90;;;;;;5032302;28;20052;-71
2023/07/27 01:26:14;;;;;;;1999.90;999.90;;;19.60;99.90;;;;;;5014558;28;20168;-71
2023/07/27 01:29:16;;;;;;;1999.90;999.90;;;19.50;99.90;;;;;;5013538;28;20030;-71
2023/07/27 01:31:43;;;;;;;1999.90;999.90;;;19.50;99.90;;;;;;5032465;28;20101;-77
2023/07/27 01:34:32;;;;;;;1999.90;999.90;;;19.40;99.90;;;;;;5019047;28;20029;-70
2023/07/27 01:37:06;;;;;;;1999.90;999.90;;;19.40;99.90;;;;;;5052080;28;20039;-71
2023/07/27 01:39:36;;;;;;;1999.90;999.90;;;19.40;99.90;;;;;;5038579;28;20120;-71
2023/07/27 01:42:03;;;;;;;1999.90;999.90;;;19.50;99.90;;;;;;5034573;28;20500;-71
2023/07/27 01:44:32;;;;;;;1999.90;999.90;;;19.50;99.90;;;;;;5033384;28;20065;-77
2023/07/27 01:46:59;;;;;;;1999.90;999.90;;;19.60;99.90;;;;;;5035659;28;20060;-71
2023/07/27 01:49:27;;;;;;;1999.90;999.90;;;19.60;99.90;;;;;;5035791;28;20448;-71
2023/07/27 01:51:54;;;;;;;1999.90;999.90;;;19.60;99.90;;;;;;5018023;28;20032;-71
2023/07/27 01:54:20;;;;;;;1999.90;999.90;;;19.60;99.90;;;;;;5017869;28;20120;-71
2023/07/27 01:56:46;;;;;;;1999.90;999.90;;;19.70;99.90;;;;;;5035661;28;20472;-77
2023/07/27 01:59:12;;;;;;;1999.90;999.90;;;19.70;99.90;;;;;;5029513;28;20036;-71
2023/07/27 02:01:38;;;;;;;1999.90;999.90;;;19.70;99.90;;;;;;5055730;28;20071;-71
2023/07/27 02:04:05;;;;;;;1999.90;999.90;;;19.70;99.90;;;;;;5055450;28;20033;-71
2023/07/27 02:06:31;;;;;;;1999.90;999.90;;;19.80;99.90;;;;;;5055424;28;20025;-71
2023/07/27 02:08:56;;;;;;;1999.90;999.90;;;19.80;99.90;;;;;;5037447;28;20036;-71
2023/07/27 02:11:24;;;;;;;1999.90;999.90;;;19.80;99.90;;;;;;5043264;28;20075;-77
2023/07/27 02:14:14;;;;;;;1999.90;999.90;;;19.90;99.90;;;;;;5055086;28;20484;-71
2023/07/27 02:16:48;;;;;;;1999.90;999.90;;;19.90;99.90;;;;;;5055098;28;20028;-71
2023/07/27 02:19:16;;;;;;;1999.90;999.90;;;19.80;99.90;;;;;;5055372;28;20032;-71
2023/07/27 02:21:43;;;;;;;1999.90;999.90;;;19.80;99.90;;;;;;5055218;28;20036;-71
2023/07/27 02:24:09;;;;;;;1999.90;999.90;;;19.80;99.90;;;;;;5036778;28;20120;-77
2023/07/27 02:26:35;;;;;;;1999.90;999.90;;;19.80;99.90;;;;;;5035254;28;20032;-70
2023/07/27 02:29:01;;;;;;;1999.90;999.90;;;19.70;99.90;;;;;;5035062;28;20112;-70
2023/07/27 02:31:27;;;;;;;1999.90;999.90;;;19.70;99.90;;;;;;5034851;28;20026;-71
2023/07/27 02:33:52;;;;;;;1999.90;999.90;;;19.60;99.90;;;;;;5034763;28;20056;-70
2023/07/27 02:36:18;;;;;;;1999.90;999.90;;;19.60;99.90;;;;;;5034988;28;20053;-77
2023/07/27 02:38:43;;;;;;;1999.90;999.90;;;19.70;99.90;;;;;;5033664;28;20464;-70
2023/07/27 02:41:10;;;;;;;1999.90;999.90;;;19.70;99.90;;;;;;5034623;28;20072;-70
2023/07/27 02:43:37;;;;;;;1999.90;999.90;;;19.70;99.90;;;;;;5034861;28;20050;-71
2023/07/27 02:46:04;;;;;;;1999.90;999.90;;;19.70;99.90;;;;;;5034708;28;20021;-71
2023/07/27 02:48:29;;;;;;;1999.90;999.90;;;19.80;99.90;;;;;;5034929;28;20030;-77
2023/07/27 02:50:55;;;;;;;1999.90;999.90;;;19.80;99.90;;;;;;5016011;28;20065;-70
2023/07/27 02:53:21;;;;;;;1999.90;999.90;;;19.80;99.90;;;;;;5016825;28;20033;-71
2023/07/27 02:55:59;;;;;;;1999.90;999.90;;;19.80;99.90;;;;;;5034881;28;20097;-71
2023/07/27 02:58:25;;;;;;;1999.90;999.90;;;19.80;99.90;;;;;;5034553;28;20033;-71
2023/07/27 03:00:56;;;;;;;1999.90;999.90;;;19.90;99.90;;;;;;5034597;28;20028;-71
2023/07/27 03:03:22;;;;;;;1999.90;999.90;;;19.90;99.90;;;;;;5016601;28;20116;-77
2023/07/27 03:05:47;;;;;;;1999.90;999.90;;;19.90;99.90;;;;;;5034289;28;20474;-71
2023/07/27 03:08:13;;;;;;;1999.90;999.90;;;19.90;99.90;;;;;;5034565;28;20029;-71
2023/07/27 03:10:39;;;;;;;1999.90;999.90;;;19.90;99.90;;;;;;5034223;28;20022;-70
2023/07/27 03:13:05;;;;;;;1999.90;999.90;;;19.90;99.90;;;;;;5053673;28;20400;-77
2023/07/27 03:15:30;;;;;;;1999.90;999.90;;;19.90;99.90;;;;;;5054191;28;20024;-77
2023/07/27 03:17:56;;;;;;;1999.90;999.90;;;20.00;99.90;;;;;;5054221;28;20033;-77
2023/07/27 03:20:22;;;;;;;1999.90;999.90;;;20.00;99.90;;;;;;5035279;28;20021;-71
2023/07/27 03:22:48;;;;;;;1999.90;999.90;;;20.00;99.90;;;;;;5054017;28;20423;-71
2023/07/27 03:25:14;;;;;;;1999.90;999.90;;;20.00;99.90;;;;;;5044715;28;20064;-71
2023/07/27 03:27:40;;;;;;;1999.90;999.90;;;20.00;99.90;;;;;;5034417;28;20022;-70
2023/07/27 03:30:06;;;;;;;1999.90;999.90;;;20.00;99.90;;;;;;5012547;28;20117;-71
2023/07/27 03:32:31;;;;;;;1999.90;999.90;;;20.00;99.90;;;;;;5014012;28;20558;-70
2023/07/27 03:34:57;;;;;;;1999.90;999.90;;;19.90;99.90;;;;;;5026820;28;20033;-71
2023/07/27 03:37:23;;;;;;;1999.90;999.90;;;19.90;99.90;;;;;;5033925;28;20030;-71
2023/07/27 03:39:48;;;;;;;1999.90;999.90;;;19.90;99.90;;;;;;5033018;28;20533;-70
2023/07/27 03:42:14;;;;;;;1999.90;999.90;;;19.90;99.90;;;;;;5033415;28;20531;-71
2023/07/27 03:44:39;;;;;;;1999.90;999.90;;;19.90;99.90;;;;;;5032879;28;20029;-71
2023/07/27 03:47:05;;;;;;;1999.90;999.90;;;19.90;99.90;;;;;;5033452;28;20025;-71
2023/07/27 03:49:31;;;;;;;1999.90;999.90;;;19.90;99.90;;;;;;5015780;28;20029;-71
2023/07/27 03:51:56;;;;;;;1999.90;999.90;;;19.90;99.90;;;;;;5033909;28;20558;-70
2023/07/27 03:54:22;;;;;;;1999.90;999.90;;;19.90;99.90;;;;;;5033399;28;20483;-70
2023/07/27 03:56:47;;;;;;;1999.90;999.90;;;19.90;99.90;;;;;;5033875;28;20037;-70
2023/07/27 03:59:13;;;;;;;1999.90;999.90;;;20.00;99.90;;;;;;5033615;28;20026;-71
2023/07/27 04:01:39;;;;;;;1999.90;999.90;;;20.00;99.90;;;;;;5015690;28;20025;-71
2023/07/27 04:04:04;;;;;;;1999.90;999.90;;;20.00;99.90;;;;;;5033594;28;20056;-71
2023/07/27 04:06:30;;;;;;;1999.90;999.90;;;20.00;99.90;;;;;;5033227;28;20036;-71
2023/07/27 04:08:56;;;;;;;1999.90;999.90;;;20.00;99.90;;;;;;5015486;28;20120;-71
2023/07/27 04:11:21;;;;;;;1999.90;999.90;;;20.00;99.90;;;;;;5038098;28;20104;-70
2023/07/27 04:13:47;;;;;;;1999.90;999.90;;;19.90;99.90;;;;;;5039485;28;20033;-71
2023/07/27 04:16:12;;;;;;;1999.90;999.90;;;20.00;99.90;;;;;;5014790;28;20121;-71
2023/07/27 04:18:38;;;;;;;1999.90;999.90;;;19.90;99.90;;;;;;5011568;28;20029;-77
2023/07/27 04:21:04;;;;;;;1999.90;999.90;;;19.90;99.90;;;;;;5032942;28;20052;-76
2023/07/27 04:23:29;;;;;;;1999.90;999.90;;;19.90;99.90;;;;;;5033061;28;20053;-71
2023/07/27 04:25:55;;;;;;;1999.90;999.90;;;19.80;99.90;;;;;;5032885;28;20480;-71
2023/07/27 04:28:21;;;;;;;1999.90;999.90;;;19.80;99.90;;;;;;5033356;28;20033;-72
2023/07/27 04:30:46;;;;;;;1999.90;999.90;;;19.80;99.90;;;;;;5032814;28;20392;-76
2023/07/27 04:33:12;;;;;;;1999.90;999.90;;;19.80;99.90;;;;;;5032950;28;20025;-71
2023/07/27 04:35:37;;;;;;;1999.90;999.90;;;19.80;99.90;;;;;;5032630;28;20100;-71
2023/07/27 04:38:03;;;;;;;1999.90;999.90;;;19.80;99.90;;;;;;5032593;28;20033;-71
2023/07/27 04:40:29;;;;;;;1999.90;999.90;;;19.80;99.90;;;;;;5032257;28;20611;-71
2023/07/27 04:42:54;;;;;;;1999.90;999.90;;;19.80;99.90;;;;;;5029460;28;20046;-71
2023/07/27 04:45:20;;;;;;;1999.90;999.90;;;19.70;99.90;;;;;;5031449;28;20021;-71
2023/07/27 04:47:45;;;;;;;1999.90;999.90;;;19.70;99.90;;;;;;5032735;28;20097;-71
2023/07/27 04:50:11;;;;;;;1999.90;999.90;;;19.70;99.90;;;;;;5032918;28;20025;-71
2023/07/27 04:52:37;;;;;;;1999.90;999.90;;;19.70;99.90;;;;;;5033019;28;20072;-71
2023/07/27 04:55:02;;;;;;;1999.90;999.90;;;19.70;99.90;;;;;;5012025;28;20433;-71
2023/07/27 04:57:28;;;;;;;1999.90;999.90;;;19.70;99.90;;;;;;5014845;28;20024;-77
2023/07/27 04:59:54;;;;;;;1999.90;999.90;;;19.70;99.90;;;;;;5032276;28;20101;-71
2023/07/27 05:02:19;;;;;;;1999.90;999.90;;;19.70;99.90;;;;;;5032741;28;20071;-71
2023/07/27 05:04:45;;;;;;;1999.90;999.90;;;19.80;99.90;;;;;;5014946;28;20120;-71
2023/07/27 05:07:11;;;;;;;1999.90;999.90;;;19.80;99.90;;;;;;5032378;28;20081;-71
2023/07/27 05:09:36;;;;;;;1999.90;999.90;;;19.80;99.90;;;;;;5037580;28;20476;-71
2023/07/27 05:12:02;;;;;;;1999.90;999.90;;;19.90;99.90;;;;;;5025242;28;20041;-77
2023/07/27 05:14:28;;;;;;;1999.90;999.90;;;19.90;99.90;;;;;;5046051;28;20488;-71
2023/07/27 05:16:53;;;;;;;1999.90;999.90;;;19.90;99.90;;;;;;5036335;28;20033;-72
2023/07/27 05:19:19;;;;;;;1999.90;999.90;;;19.90;99.90;;;;;;5035949;28;20513;-71
2023/07/27 05:21:44;;;;;;;1999.90;999.90;;;19.90;99.90;;;;;;5018500;28;20025;-71
2023/07/27 05:24:10;;;;;;;1999.90;999.90;;;20.00;99.90;;;;;;5035018;28;20582;-72
2023/07/27 05:26:35;;;;;;;1999.90;999.90;;;20.00;99.90;;;;;;5036254;28;20028;-71
2023/07/27 05:29:01;;;;;;;1999.90;999.90;;;20.00;99.90;;;;;;5036167;28;20541;-71
2023/07/27 05:31:27;;;;;;;1999.90;999.90;;;19.90;99.90;;;;;;5035879;28;20044;-77
2023/07/27 05:33:52;;;;;;;1999.90;999.90;;;19.90;99.90;;;;;;5034869;28;20033;-71
2023/07/27 05:36:18;;;;;;;1999.90;999.90;;;19.80;99.90;;;;;;5038090;28;20030;-71
2023/07/27 05:38:43;;;;;;;1999.90;999.90;;;19.80;99.90;;;;;;5041908;28;20036;-77
2023/07/27 05:41:09;;;;;;;1999.90;999.90;;;19.90;99.90;;;;;;5018155;28;20080;-71
2023/07/27 05:43:35;;;;;;;1999.90;999.90;;;19.90;99.90;;;;;;5035719;28;20463;-71
2023/07/27 05:46:00;;;;;;;1999.90;999.90;;;20.10;99.90;;;;;;5035022;28;20439;-71
2023/07/27 05:48:26;;;;;;;1999.90;999.90;;;20.20;99.90;;;;;;5015455;28;20455;-72
2023/07/27 05:50:53;;;;;;;1999.90;999.90;;;20.30;99.90;;;;;;5028811;28;20063;-76
2023/07/27 05:53:18;;;;;;;1999.90;999.90;;;20.40;99.90;;;;;;5040923;28;20049;-71
2023/07/27 05:55:44;;;;;;;1999.90;999.90;;;20.40;99.90;;;;;;5034178;28;20033;-71
2023/07/27 05:58:10;;;;;;;1999.90;999.90;;;20.40;99.90;;;;;;5034857;28;20056;-72
2023/07/27 06:00:36;;;;;;;1999.90;999.90;;;20.40;99.90;;;;;;5035074;28;20037;-71
2023/07/27 06:03:02;;;;;;;1999.90;999.90;;;20.40;99.90;;;;;;5034100;28;20022;-76
2023/07/27 06:05:27;;;;;;;1999.90;999.90;;;20.40;99.90;;;;;;5018638;28;20037;-77
2023/07/27 06:07:53;;;;;;;1999.90;999.90;;;20.40;99.90;;;;;;5035045;28;20112;-71
2023/07/27 06:10:19;;;;;;;1999.90;999.90;;;20.50;99.90;;;;;;5019151;28;20488;-71
2023/07/27 06:12:44;;;;;;;1999.90;999.90;;;20.50;99.90;;;;;;5016273;28;20037;-71
2023/07/27 06:15:10;;;;;;;1999.90;999.90;;;20.60;99.90;;;;;;5038407;28;20101;-76
2023/07/27 06:17:36;;;;;;;1999.90;999.90;;;20.60;99.90;;;;;;5034720;28;20026;-71
2023/07/27 06:20:02;;;;;;;1999.90;999.90;;;20.60;99.90;;;;;;5033041;28;20555;-73
2023/07/27 06:22:28;;;;;;;1999.90;999.90;;;20.60;99.90;;;;;;5011220;28;20045;-71
2023/07/27 06:24:53;;;;;;;1999.90;999.90;;;20.70;99.90;;;;;;5012872;28;20389;-71
2023/07/27 06:27:19;;;;;;;1999.90;999.90;;;20.70;99.90;;;;;;5041886;28;20072;-71
2023/07/27 06:29:45;;;;;;;1999.90;999.90;;;20.80;99.90;;;;;;5014852;28;20400;-76
2023/07/27 06:32:10;;;;;;;1999.90;999.90;;;20.80;99.90;;;;;;5032839;28;20059;-76
2023/07/27 06:34:36;;;;;;;1999.90;999.90;;;20.70;99.90;;;;;;5031970;28;20026;-71
2023/07/27 06:37:01;;;;;;;1999.90;999.90;;;20.80;99.90;;;;;;5031212;28;20033;-71
2023/07/27 06:39:28;;;;;;;1999.90;999.90;;;20.70;99.90;;;;;;5032029;28;20029;-71
2023/07/27 06:41:54;;;;;;;1999.90;999.90;;;20.80;99.90;;;;;;5031696;28;20036;-71
2023/07/27 06:44:19;;;;;;;1999.90;999.90;;;20.90;99.90;;;;;;5014560;28;20120;-76
2023/07/27 06:46:45;;;;;;;1999.90;999.90;;;20.80;99.90;;;;;;5030140;28;20037;-71
2023/07/27 06:49:11;;;;;;;1999.90;999.90;;;20.90;99.90;;;;;;5026947;28;20504;-71
2023/07/27 06:51:37;;;;;;;1999.90;999.90;;;21.00;99.90;;;;;;5026869;28;20040;-71
2023/07/27 06:54:02;;;;;;;1999.90;999.90;;;21.10;99.90;;;;;;5030221;28;20029;-76
2023/07/27 06:56:28;;;;;;;1999.90;999.90;;;21.10;99.90;;;;;;5029238;28;20515;-72
2023/07/27 06:58:53;;;;;;;1999.90;999.90;;;21.10;99.90;;;;;;5031336;28;20029;-71
2023/07/27 07:01:19;;;;;;;1999.90;999.90;;;21.10;99.90;;;;;;5032495;28;20652;-71
2023/07/27 07:03:45;;;;;;;1999.90;999.90;;;21.30;99.90;;;;;;5014399;28;20035;-71
2023/07/27 07:06:10;;;;;;;1999.90;999.90;;;21.30;99.90;;;;;;5039438;28;20037;-71
2023/07/27 07:08:36;;;;;;;1999.90;999.90;;;21.30;99.90;;;;;;5030249;28;20025;-75
2023/07/27 07:11:02;;;;;;;1999.90;999.90;;;21.30;99.90;;;;;;5028108;28;20061;-76
2023/07/27 07:13:29;;;;;;;1999.90;999.90;;;21.50;99.90;;;;;;5028728;28;20030;-71
2023/07/27 07:15:54;;;;;;;1999.90;999.90;;;21.50;99.90;;;;;;5017940;28;20030;-71
2023/07/27 07:18:20;;;;;;;1999.90;999.90;;;21.40;99.90;;;;;;5019753;28;20439;-72
2023/07/27 07:20:46;;;;;;;1999.90;999.90;;;21.50;99.90;;;;;;5029662;28;20032;-76
2023/07/27 07:23:12;;;;;;;1999.90;999.90;;;21.40;99.90;;;;;;5026606;28;20025;-72
2023/07/27 07:25:40;;;;;;;1999.90;999.90;;;21.30;99.90;;;;;;5013398;28;20083;-72
2023/07/27 07:28:05;;;;;;;1999.90;999.90;;;21.30;99.90;;;;;;5031388;28;20029;-72
2023/07/27 07:30:31;;;;;;;1999.90;999.90;;;21.40;99.90;;;;;;5031191;28;20041;-72
2023/07/27 07:32:56;;;;;;;1999.90;999.90;;;21.40;99.90;;;;;;5031082;28;20078;-72
2023/07/27 07:35:22;;;;;;;1999.90;999.90;;;21.40;99.90;;;;;;5033832;28;20555;-77
2023/07/27 07:37:49;;;;;;;1999.90;999.90;;;21.60;99.90;;;;;;5030631;28;20083;-72
2023/07/27 07:40:16;;;;;;;1999.90;999.90;;;21.60;99.90;;;;;;5011524;28;20037;-72
2023/07/27 07:42:42;;;;;;;1999.90;999.90;;;21.80;99.90;;;;;;5030968;28;20124;-72
2023/07/27 07:45:08;;;;;;;1999.90;999.90;;;21.90;99.90;;;;;;5032457;28;20140;-72
2023/07/27 07:47:34;;;;;;;1999.90;999.90;;;22.10;99.90;;;;;;5029566;28;20037;-75
2023/07/27 07:49:59;;;;;;;1999.90;999.90;;;22.00;99.90;;;;;;5031268;28;20025;-71
2023/07/27 07:52:25;;;;;;;1999.90;999.90;;;22.10;99.90;;;;;;5031439;28;20033;-72
2023/07/27 07:54:51;;;;;;;1999.90;999.90;;;22.20;99.90;;;;;;5012689;28;20400;-72
2023/07/27 07:57:19;;;;;;;1999.90;999.90;;;22.20;99.90;;;;;;5030832;28;20067;-72
2023/07/27 07:59:45;;;;;;;1999.90;999.90;;;22.10;99.90;;;;;;5031221;28;20365;-72
2023/07/27 08:02:11;;;;;;;1999.90;999.90;;;22.00;99.90;;;;;;5029507;28;20025;-77
2023/07/27 08:04:37;;;;;;;1999.90;999.90;;;21.90;99.90;;;;;;5023918;28;20033;-71
2023/07/27 08:07:03;;;;;;;1999.90;999.90;;;21.90;99.90;;;;;;5030875;28;20025;-71
2023/07/27 08:09:29;;;;;;;1999.90;999.90;;;21.80;99.90;;;;;;5026537;28;20025;-71
2023/07/27 08:11:54;;;;;;;1999.90;999.90;;;21.70;99.90;;;;;;5030622;28;20033;-77
2023/07/27 08:14:20;;;;;;;1999.90;999.90;;;21.80;99.90;;;;;;5012513;28;20396;-77
2023/07/27 08:16:46;;;;;;;1999.90;999.90;;;21.90;99.90;;;;;;5031065;28;20408;-72
2023/07/27 08:19:12;;;;;;;1999.90;999.90;;;22.10;99.90;;;;;;5029437;28;20018;-72
2023/07/27 08:21:37;;;;;;;1999.90;999.90;;;22.20;99.90;;;;;;5009942;28;20544;-72
2023/07/27 08:24:05;;;;;;;1999.90;999.90;;;22.50;99.90;;;;;;5019368;28;20022;-72
2023/07/27 08:26:31;;;;;;;1999.90;999.90;;;22.50;99.90;;;;;;5030045;28;20029;-78
2023/07/27 08:28:57;;;;;;;1999.90;999.90;;;22.40;99.90;;;;;;5038698;28;20030;-71
2023/07/27 08:31:23;;;;;;;1999.90;999.90;;;22.50;99.90;;;;;;5011326;28;20033;-72
2023/07/27 08:33:48;;;;;;;1999.90;999.90;;;22.90;99.90;;;;;;5022945;28;20460;-71
2023/07/27 08:36:14;;;;;;;1999.90;999.90;;;23.50;99.90;;;;;;5029300;28;20029;-72
2023/07/27 08:38:40;;;;;;;1999.90;999.90;;;23.20;99.90;;;;;;5011091;28;20108;-77
2023/07/27 08:41:05;;;;;;;1999.90;999.90;;;23.50;99.90;;;;;;5023562;28;20034;-73
2023/07/27 08:43:31;;;;;;;1999.90;999.90;;;23.70;99.90;;;;;;5014497;28;20045;-72
2023/07/27 08:45:58;;;;;;;1999.90;999.90;;;24.30;99.90;;;;;;5030646;28;20083;-72
2023/07/27 08:48:24;;;;;;;1999.90;999.90;;;25.00;99.90;;;;;;5012656;28;20088;-71
2023/07/27 08:50:51;;;;;;;1999.90;999.90;;;24.70;99.90;;;;;;5027708;28;20104;-77
2023/07/27 08:53:18;;;;;;;1999.90;999.90;;;24.60;99.90;;;;;;5018379;28;20026;-71
2023/07/27 08:55:43;;;;;;;1999.90;999.90;;;24.30;99.90;;;;;;5027243;28;20361;-71
2023/07/27 08:58:10;;;;;;;1999.90;999.90;;;24.40;99.90;;;;;;5013169;28;20033;-72
2023/07/27 09:00:40;;;;;;;1999.90;999.90;;;23.60;99.90;;;;;;5030193;28;20025;-73
2023/07/27 09:03:07;;;;;;;1999.90;999.90;;;22.80;99.90;;;;;;5030686;28;20029;-73
2023/07/27 09:05:43;;;;;;;1999.90;999.90;;;22.70;99.90;;;;;;5010370;28;20033;-72
2023/07/27 09:08:14;;;;;;;1999.90;999.90;;;23.10;99.90;;;;;;5024916;28;20022;-72
2023/07/27 09:10:41;;;;;;;1999.90;999.90;;;24.30;99.90;;;;;;5030425;28;20076;-72
2023/07/27 09:13:07;;;;;;;1999.90;999.90;;;24.60;99.90;;;;;;5030048;28;20021;-72
2023/07/27 09:15:34;;;;;;;1999.90;999.90;;;27.90;99.90;;;;;;5030448;28;20100;-72
2023/07/27 09:18:01;;;;;;;1999.90;999.90;;;28.80;99.90;;;;;;5031154;28;20026;-72
2023/07/27 09:20:30;;;;;;;1999.90;999.90;;;30.90;99.90;;;;;;5030527;28;20100;-72
2023/07/27 09:22:56;;;;;;;1999.90;999.90;;;30.90;99.90;;;;;;5048526;28;20048;-72
2023/07/27 09:25:23;;;;;;;1999.90;999.90;;;29.70;99.90;;;;;;5038913;28;20083;-72
2023/07/27 09:27:53;;;;;;;1999.90;999.90;;;28.50;99.90;;;;;;5030566;28;20096;-72
2023/07/27 09:30:19;;;;;;;1999.90;999.90;;;28.30;99.90;;;;;;5020916;28;20022;-77
2023/07/27 09:32:47;;;;;;;1999.90;999.90;;;28.20;99.90;;;;;;5030968;28;20368;-78
2023/07/27 09:35:14;;;;;;;1999.90;999.90;;;27.20;99.90;;;;;;5032170;28;20033;-72
2023/07/27 09:37:58;;;;;;;1999.90;999.90;;;26.70;99.90;;;;;;5030771;28;20025;-73
2023/07/27 09:40:24;;;;;;;1999.90;999.90;;;26.50;99.90;;;;;;5019407;28;20036;-72
2023/07/27 09:42:51;;;;;;;1999.90;999.90;;;27.10;99.90;;;;;;5027946;28;20412;-77
2023/07/27 09:45:18;;;;;;;1999.90;999.90;;;27.50;99.90;;;;;;5029386;28;20030;-78
2023/07/27 09:47:45;;;;;;;1999.90;999.90;;;28.50;99.90;;;;;;5030532;28;20037;-72
2023/07/27 09:50:10;;;;;;;1999.90;999.90;;;29.50;99.90;;;;;;5030298;28;20050;-72
2023/07/27 09:52:38;;;;;;;1999.90;999.90;;;28.70;99.90;;;;;;5012682;28;20061;-72
2023/07/27 09:55:04;;;;;;;1999.90;999.90;;;27.60;99.90;;;;;;5029365;28;20095;-72
2023/07/27 09:57:30;;;;;;;1999.90;999.90;;;28.90;99.90;;;;;;5012712;28;20443;-78
2023/07/27 09:59:56;;;;;;;1999.90;999.90;;;28.40;99.90;;;;;;5013375;28;20036;-72
2023/07/27 10:02:22;;;;;;;1999.90;999.90;;;28.00;99.90;;;;;;5033233;28;20132;-72
2023/07/27 10:04:52;;;;;;;1999.90;999.90;;;28.30;99.90;;;;;;5033643;28;20108;-72
2023/07/27 10:07:22;;;;;;;1999.90;999.90;;;30.40;99.90;;;;;;5014953;28;20068;-72
2023/07/27 10:10:08;;;;;;;1999.90;999.90;;;30.20;99.90;;;;;;5012824;28;20357;-77
2023/07/27 10:12:33;;;;;;;1999.90;999.90;;;29.60;99.90;;;;;;5028673;28;20048;-77
2023/07/27 10:15:19;;;;;;;1999.90;999.90;;;30.70;99.90;;;;;;5033317;28;20555;-72
2023/07/27 10:17:46;;;;;;;1999.90;999.90;;;30.70;99.90;;;;;;5033710;28;20377;-72
2023/07/27 10:20:26;;;;;;;1999.90;999.90;;;31.10;99.90;;;;;;5005386;28;20488;-77
2023/07/27 10:23:08;;;;;;;1999.90;999.90;;;28.70;99.90;;;;;;5015983;28;20489;-71
2023/07/27 10:25:52;;;;;;;1999.90;999.90;;;28.60;99.90;;;;;;5031235;28;20083;-76
2023/07/27 10:28:42;;;;;;;1999.90;999.90;;;31.00;99.90;;;;;;5009480;28;20272;-78
2023/07/27 10:31:14;;;;;;;1999.90;999.90;;;30.60;99.90;;;;;;5009817;28;20039;-77
2023/07/27 10:34:01;;;;;;;1999.90;999.90;;;29.50;99.90;;;;;;5032829;28;20520;-71
2023/07/27 10:37:12;;;;;;;1999.90;999.90;;;29.00;99.90;;;;;;5015429;28;20607;-77
2023/07/27 10:39:47;;;;;;;1999.90;999.90;;;28.70;99.90;;;;;;5013124;28;20044;-76
2023/07/27 10:42:18;;;;;;;1999.90;999.90;;;29.60;99.90;;;;;;5015788;28;20088;-72
2023/07/27 10:44:50;;;;;;;1999.90;999.90;;;29.30;99.90;;;;;;5031583;28;20480;-72
2023/07/27 10:47:20;;;;;;;1999.90;999.90;;;29.60;99.90;;;;;;5018122;28;20033;-78
2023/07/27 10:49:47;;;;;;;1999.90;999.90;;;28.50;99.90;;;;;;5033352;28;20435;-77
2023/07/27 10:52:16;;;;;;;1999.90;999.90;;;28.10;99.90;;;;;;5033256;28;20037;-72
2023/07/27 10:54:42;;;;;;;1999.90;999.90;;;28.20;99.90;;;;;;5024901;28;20443;-72
2023/07/27 10:57:09;;;;;;;1999.90;999.90;;;27.80;99.90;;;;;;5018400;28;20078;-78
2023/07/27 10:59:43;;;;;;;1999.90;999.90;;;27.80;99.90;;;;;;5032283;28;20021;-78
2023/07/27 11:02:21;;;;;;;1999.90;999.90;;;27.90;99.90;;;;;;5013642;28;20028;-77
2023/07/27 11:04:51;;;;;;;1999.90;999.90;;;28.20;99.90;;;;;;5027408;28;20400;-71
2023/07/27 11:07:32;;;;;;;1999.90;999.90;;;28.30;99.90;;;;;;5028678;28;20168;-71
2023/07/27 11:09:59;;;;;;;1999.90;999.90;;;27.80;99.90;;;;;;5034597;28;20412;-77
2023/07/27 11:12:25;;;;;;;1999.90;999.90;;;27.30;99.90;;;;;;5030494;28;20048;-78
2023/07/27 11:14:55;;;;;;;1999.90;999.90;;;29.10;99.90;;;;;;5024818;28;20026;-77
2023/07/27 11:17:22;;;;;;;1999.90;999.90;;;28.60;99.90;;;;;;5030360;28;20049;-71
2023/07/27 11:19:47;;;;;;;1999.90;999.90;;;28.80;99.90;;;;;;5011770;28;20058;-71
2023/07/27 11:22:13;;;;;;;1999.90;999.90;;;29.70;99.90;;;;;;5024909;28;20041;-71
2023/07/27 11:24:39;;;;;;;1999.90;999.90;;;29.50;99.90;;;;;;5028857;28;20026;-77
2023/07/27 11:27:10;;;;;;;1999.90;999.90;;;30.40;99.90;;;;;;5010247;28;20029;-71
2023/07/27 11:29:40;;;;;;;1999.90;999.90;;;31.10;99.90;;;;;;5026918;28;20455;-71
2023/07/27 11:32:06;;;;;;;1999.90;999.90;;;29.30;99.90;;;;;;5026394;28;20033;-71
2023/07/27 11:34:32;;;;;;;1999.90;999.90;;;30.40;99.90;;;;;;5032386;28;20404;-71
2023/07/27 11:36:58;;;;;;;1999.90;999.90;;;29.90;99.90;;;;;;5031807;28;20041;-71
2023/07/27 11:39:25;;;;;;;1999.90;999.90;;;29.90;99.90;;;;;;5032523;28;20112;-71
2023/07/27 11:41:52;;;;;;;1999.90;999.90;;;29.50;99.90;;;;;;5030853;28;20034;-71
2023/07/27 11:44:21;;;;;;;1999.90;999.90;;;30.40;99.90;;;;;;5014670;28;20092;-71
2023/07/27 11:46:50;;;;;;;1999.90;999.90;;;31.80;99.90;;;;;;5031765;28;20057;-71
2023/07/27 11:49:17;;;;;;;1999.90;999.90;;;32.20;99.90;;;;;;5032110;28;20018;-71
2023/07/27 11:51:45;;;;;;;1999.90;999.90;;;31.50;99.90;;;;;;5033049;28;20039;-71
2023/07/27 11:54:20;;;;;;;1999.90;999.90;;;30.30;99.90;;;;;;5030516;28;20547;-78
2023/07/27 11:56:50;;;;;;;1999.90;999.90;;;30.00;99.90;;;;;;5036139;28;20488;-71
2023/07/27 11:59:16;;;;;;;1999.90;999.90;;;30.10;99.90;;;;;;5013970;28;20484;-71
2023/07/27 12:01:42;;;;;;;1999.90;999.90;;;28.70;99.90;;;;;;5032000;28;20080;-71